Time;durP1;ratioP1;P1;durP2;ratioP2;P2;SDS_P1;SDS_P2;PMS_P1;PMS_P2;Temp;Humidity;BMP_temperature;BMP_pressure;BME280_temperature;BME280_humidity;BME280_pressure;Samples;Min_cycle;Max_cycle;Signal;HPM_P1;HPM_P2
2022/10/20 00:01:16;;;;;;;4.23;2.97;;;;;;;8.16;100.00;102094.47;5053686;28;20480;-73
2022/10/20 00:03:42;;;;;;;5.30;2.80;;;;;;;9.01;100.00;102244.69;5051979;28;20972;-73
2022/10/20 00:06:11;;;;;;;5.17;2.63;;;;;;;9.03;100.00;102229.34;5047327;28;20480;-73
2022/10/20 00:08:38;;;;;;;3.40;2.80;;;;;;;8.91;100.00;102241.25;5063149;28;20460;-73
2022/10/20 00:11:04;;;;;;;8.30;3.03;;;;;;;8.37;100.00;102147.63;5064167;28;20487;-73
2022/10/20 00:13:29;;;;;;;7.20;2.83;;;;;;;8.00;100.00;102099.63;5041827;28;20436;-73
2022/10/20 00:15:55;;;;;;;6.30;2.83;;;;;;;8.56;100.00;102179.59;5044017;28;20198;-74
2022/10/20 00:18:22;;;;;;;5.50;2.83;;;;;;;8.69;100.00;102207.78;5048862;28;20274;-74
2022/10/20 00:20:48;;;;;;;6.23;2.80;;;;;;;8.83;100.00;102225.97;5064493;28;20269;-74
2022/10/20 00:23:14;;;;;;;3.43;2.77;;;;;;;8.46;100.00;102189.50;5065405;28;20512;-74
2022/10/20 00:25:39;;;;;;;6.40;3.10;;;;;;;8.65;100.00;102212.59;5069571;28;20295;-74
2022/10/20 00:28:05;;;;;;;6.57;3.10;;;;;;;8.78;100.00;102215.72;5069016;28;20183;-74
2022/10/20 00:30:32;;;;;;;6.40;3.27;;;;;;;8.14;100.00;102128.50;5040928;28;20186;-74
2022/10/20 00:32:58;;;;;;;11.00;3.40;;;;;;;8.19;100.00;102106.66;5063715;28;20473;-74
2022/10/20 00:35:23;;;;;;;5.97;3.20;;;;;;;8.81;100.00;102206.56;5064941;22;20534;-68
2022/10/20 00:37:48;;;;;;;6.67;3.73;;;;;;;8.11;100.00;102120.78;5043296;28;20222;-68
2022/10/20 00:40:14;;;;;;;4.67;2.63;;;;;;;9.02;100.00;102201.69;5043740;28;20219;-69
2022/10/20 00:42:46;;;;;;;4.73;3.40;;;;;;;8.53;100.00;102138.91;5048454;28;20877;-69
2022/10/20 00:45:14;;;;;;;5.70;2.83;;;;;;;8.57;100.00;102175.09;5037351;28;20222;-69
2022/10/20 00:47:42;;;;;;;4.60;3.17;;;;;;;8.19;100.00;102098.63;5031943;28;20487;-68
2022/10/20 00:50:12;;;;;;;3.10;2.57;;;;;;;8.57;100.00;102170.56;5040353;28;20439;-68
2022/10/20 00:52:40;;;;;;;4.03;2.77;;;;;;;8.53;100.00;102171.00;5042351;28;20505;-69
2022/10/20 00:55:07;;;;;;;7.27;3.80;;;;;;;8.46;100.00;102160.09;5040036;28;20443;-68
2022/10/20 00:57:32;;;;;;;5.90;2.67;;;;;;;8.25;100.00;102103.41;5036370;28;20520;-68
2022/10/20 00:59:58;;;;;;;4.50;2.10;;;;;;;8.13;100.00;102110.78;5042296;28;20572;-69
2022/10/20 01:02:23;;;;;;;3.50;2.63;;;;;;;8.46;100.00;102145.88;5037365;28;20195;-68
2022/10/20 01:04:49;;;;;;;4.07;2.70;;;;;;;8.45;100.00;102154.91;5039595;28;20278;-68
2022/10/20 01:07:14;;;;;;;5.17;3.13;;;;;;;8.27;100.00;102096.03;5043287;28;20203;-68
2022/10/20 01:09:40;;;;;;;5.37;2.17;;;;;;;8.56;100.00;102141.28;5037022;28;20187;-68
2022/10/20 01:12:47;;;;;;;4.80;2.23;;;;;;;8.80;100.00;102128.13;5040200;28;20240;-68
2022/10/20 01:15:25;;;;;;;6.40;3.13;;;;;;;8.58;100.00;102129.44;5022326;28;20242;-68
2022/10/20 01:18:05;;;;;;;5.40;2.57;;;;;;;8.33;100.00;102106.97;5036362;28;20448;-68
2022/10/20 01:21:11;;;;;;;5.77;2.80;;;;;;;8.48;100.00;102126.03;5022703;28;20499;-68
2022/10/20 01:23:57;;;;;;;4.03;2.70;;;;;;;8.50;100.00;102112.50;5038405;28;20427;-68
2022/10/20 01:26:53;;;;;;;3.93;2.50;;;;;;;8.36;100.00;102105.81;5039498;28;20470;-69
2022/10/20 01:29:22;;;;;;;8.47;2.87;;;;;;;8.35;100.00;102115.66;5037464;28;20464;-68
2022/10/20 01:31:57;;;;;;;5.80;2.70;;;;;;;8.40;100.00;102101.06;5038674;28;21127;-68
2022/10/20 01:34:47;;;;;;;3.63;2.50;;;;;;;8.30;100.00;102098.41;5040930;28;20449;-68
2022/10/20 01:37:27;;;;;;;5.10;2.50;;;;;;;8.44;100.00;102108.59;5041077;28;20474;-68
2022/10/20 01:40:09;;;;;;;3.57;2.53;;;;;;;8.24;100.00;102107.88;5039519;28;20463;-68
2022/10/20 01:42:38;;;;;;;4.33;2.87;;;;;;;8.42;100.00;102109.75;5038173;28;20553;-68
2022/10/20 01:45:05;;;;;;;3.50;2.20;;;;;;;8.23;100.00;102076.81;5040141;28;20447;-68
2022/10/20 01:47:31;;;;;;;3.70;2.63;;;;;;;8.25;100.00;102098.88;5036506;28;20446;-69
2022/10/20 01:49:57;;;;;;;2.73;2.27;;;;;;;7.95;100.00;102078.69;5038031;28;20454;-68
2022/10/20 01:52:23;;;;;;;3.00;2.33;;;;;;;8.27;100.00;102090.69;5037752;28;20669;-68
2022/10/20 01:54:49;;;;;;;3.27;2.27;;;;;;;7.77;100.00;102046.63;5024499;28;20222;-68
2022/10/20 01:57:27;;;;;;;7.67;2.80;;;;;;;8.01;100.00;102102.13;5021730;28;20739;-68
2022/10/20 01:59:58;;;;;;;7.87;2.60;;;;;;;7.97;100.00;102098.09;5039478;28;20239;-68
2022/10/20 02:02:29;;;;;;;6.10;2.60;;;;;;;7.94;100.00;102095.72;5038848;28;20443;-68
2022/10/20 02:05:16;;;;;;;5.33;2.70;;;;;;;7.86;100.00;102090.28;5037563;28;20479;-68
2022/10/20 02:07:41;;;;;;;3.90;2.50;;;;;;;7.60;100.00;102036.75;5041435;28;20456;-68
2022/10/20 02:10:24;;;;;;;8.20;4.10;;;;;;;7.58;100.00;102028.91;5039150;28;20640;-68
2022/10/20 02:12:55;;;;;;;5.30;2.87;;;;;;;7.69;100.00;102034.03;5037844;28;20216;-68
2022/10/20 02:15:24;;;;;;;6.63;2.60;;;;;;;7.78;100.00;102026.09;5039066;28;20528;-68
2022/10/20 02:17:57;;;;;;;4.20;2.17;;;;;;;7.95;100.00;102062.66;5040036;28;20438;-68
2022/10/20 02:20:23;;;;;;;5.27;3.00;;;;;;;7.46;100.00;102000.72;5042979;28;20437;-68
2022/10/20 02:22:49;;;;;;;5.47;2.77;;;;;;;7.68;100.00;102047.53;5037142;28;20953;-68
2022/10/20 02:25:15;;;;;;;3.03;2.33;;;;;;;7.62;100.00;102010.75;5037948;28;20466;-68
2022/10/20 02:27:45;;;;;;;5.73;2.40;;;;;;;7.64;100.00;102035.47;5039604;28;20866;-68
2022/10/20 02:30:14;;;;;;;5.23;2.53;;;;;;;7.22;100.00;101947.91;5036177;28;20792;-68
2022/10/20 02:32:42;;;;;;;3.53;2.40;;;;;;;7.43;100.00;101956.50;5041616;28;20458;-68
2022/10/20 02:35:13;;;;;;;3.60;2.40;;;;;;;7.30;100.00;101936.50;5024772;28;20419;-68
2022/10/20 02:37:39;;;;;;;5.37;2.20;;;;;;;7.16;100.00;101928.00;5040217;28;20450;-68
2022/10/20 02:40:05;;;;;;;6.20;2.47;;;;;;;7.37;100.00;101977.59;5037957;28;20447;-68
2022/10/20 02:42:30;;;;;;;4.97;2.37;;;;;;;7.95;100.00;102006.56;5037542;28;20180;-68
2022/10/20 02:44:55;;;;;;;3.43;2.23;;;;;;;7.25;100.00;101916.41;5038171;28;20661;-69
2022/10/20 02:47:21;;;;;;;5.83;2.90;;;;;;;7.81;100.00;102009.75;5038480;28;20611;-68
2022/10/20 02:49:47;;;;;;;4.10;2.70;;;;;;;7.58;100.00;101982.66;5034281;28;20703;-68
2022/10/20 02:52:13;;;;;;;5.53;3.07;;;;;;;7.68;100.00;102002.13;5022579;28;20615;-69
2022/10/20 02:54:38;;;;;;;2.90;2.20;;;;;;;7.88;100.00;102022.38;5035771;28;20465;-68
2022/10/20 02:57:04;;;;;;;4.53;2.00;;;;;;;7.82;100.00;101998.09;5023421;28;20457;-68
2022/10/20 02:59:29;;;;;;;4.50;2.30;;;;;;;7.78;100.00;102010.06;5036867;28;20660;-68
2022/10/20 03:01:55;;;;;;;3.80;2.30;;;;;;;7.61;100.00;102009.91;5035566;28;20226;-68
2022/10/20 03:04:20;;;;;;;4.13;2.20;;;;;;;7.69;100.00;102026.03;5021896;28;20266;-68
2022/10/20 03:06:46;;;;;;;2.97;1.87;;;;;;;7.71;100.00;102020.53;5036504;28;20215;-68
2022/10/20 03:09:11;;;;;;;4.60;2.50;;;;;;;7.43;100.00;101977.84;5034606;28;20192;-68
2022/10/20 03:11:36;;;;;;;4.10;2.27;;;;;;;7.16;100.00;101960.03;5037582;28;20215;-69
2022/10/20 03:14:02;;;;;;;4.50;2.10;;;;;;;7.61;100.00;102009.09;5037778;28;20185;-69
2022/10/20 03:16:27;;;;;;;4.07;2.63;;;;;;;7.51;100.00;101990.44;5035353;28;20223;-68
2022/10/20 03:18:53;;;;;;;4.30;2.37;;;;;;;7.19;100.00;101921.53;5036693;28;21229;-68
2022/10/20 03:21:19;;;;;;;4.00;2.40;;;;;;;6.69;100.00;101863.28;5038118;28;20187;-68
2022/10/20 03:23:44;;;;;;;5.17;3.33;;;;;;;7.52;100.00;101976.13;5013963;28;20253;-68
2022/10/20 03:26:10;;;;;;;2.73;2.13;;;;;;;7.17;100.00;101924.31;5029040;28;20302;-68
2022/10/20 03:28:36;;;;;;;6.10;2.97;;;;;;;6.83;100.00;101884.13;5031057;28;20272;-68
2022/10/20 03:31:02;;;;;;;6.90;2.70;;;;;;;6.98;100.00;101914.63;5012769;28;20438;-68
2022/10/20 03:33:27;;;;;;;12.07;3.50;;;;;;;7.48;100.00;101969.38;5014694;28;20216;-68
2022/10/20 03:35:52;;;;;;;7.40;2.73;;;;;;;7.41;100.00;101971.81;5027975;28;20216;-68
2022/10/20 03:38:18;;;;;;;2.73;2.50;;;;;;;7.09;100.00;101907.41;5007661;28;20570;-68
2022/10/20 03:40:44;;;;;;;3.17;2.67;;;;;;;6.74;100.00;101875.19;5027646;28;20200;-68
2022/10/20 03:43:09;;;;;;;6.40;3.13;;;;;;;7.37;100.00;101977.59;5015756;28;20188;-68
2022/10/20 03:45:35;;;;;;;2.87;2.57;;;;;;;7.30;100.00;101955.19;5027544;28;20207;-68
2022/10/20 03:48:00;;;;;;;4.27;2.60;;;;;;;7.34;100.00;101957.38;5030619;28;20195;-69
2022/10/20 03:50:25;;;;;;;7.10;3.03;;;;;;;6.89;100.00;101888.84;5029263;28;20196;-69
2022/10/20 03:52:51;;;;;;;4.50;3.70;;;;;;;6.64;100.00;101839.72;5008187;28;20217;-68
2022/10/20 03:55:18;;;;;;;4.80;4.10;;;;;;;6.89;100.00;101870.19;5023472;28;20698;-69
2022/10/20 03:57:43;;;;;;;5.50;4.03;;;;;;;7.12;100.00;101891.13;5011651;28;20703;-68
2022/10/20 04:00:09;;;;;;;4.00;3.10;;;;;;;6.72;100.00;101842.50;5030271;28;20450;-68
2022/10/20 04:02:37;;;;;;;4.83;3.43;;;;;;;6.99;100.00;101886.94;5013388;28;20663;-68
2022/10/20 04:05:04;;;;;;;5.20;3.73;;;;;;;7.39;100.00;101915.06;5025572;28;20447;-68
2022/10/20 04:07:29;;;;;;;3.63;3.20;;;;;;;6.84;100.00;101837.78;5029247;28;20437;-68
2022/10/20 04:09:55;;;;;;;6.60;4.10;;;;;;;6.89;100.00;101816.00;5025652;28;20435;-68
2022/10/20 04:12:21;;;;;;;4.83;3.50;;;;;;;7.41;100.00;101902.41;5025811;28;20286;-68
2022/10/20 04:14:47;;;;;;;4.40;4.00;;;;;;;6.73;100.00;101820.16;5028170;28;20481;-68
2022/10/20 04:17:13;;;;;;;5.07;4.43;;;;;;;7.21;100.00;101901.72;5027500;28;21244;-68
2022/10/20 04:19:38;;;;;;;5.07;4.27;;;;;;;7.20;100.00;101881.38;5010361;28;20442;-68
2022/10/20 04:22:04;;;;;;;7.00;4.37;;;;;;;6.98;100.00;101839.94;5030110;28;20184;-68
2022/10/20 04:24:29;;;;;;;6.03;4.20;;;;;;;6.72;100.00;101759.00;5030338;28;20210;-68
2022/10/20 04:26:54;;;;;;;8.57;4.20;;;;;;;6.78;100.00;101780.56;5033234;28;20204;-68
2022/10/20 04:29:20;;;;;;;8.80;4.67;;;;;;;7.17;100.00;101852.28;5034061;28;20194;-68
2022/10/20 04:31:45;;;;;;;7.20;4.80;;;;;;;7.46;100.00;101851.22;5028979;28;20200;-68
2022/10/20 04:34:11;;;;;;;6.00;4.60;;;;;;;7.20;100.00;101865.34;5020037;28;20752;-68
2022/10/20 04:36:36;;;;;;;6.70;4.50;;;;;;;6.93;100.00;101798.69;5039067;28;20211;-68
2022/10/20 04:39:04;;;;;;;5.17;4.67;;;;;;;7.28;100.00;101877.09;5038978;28;20196;-68
2022/10/20 04:41:30;;;;;;;7.87;4.63;;;;;;;7.33;100.00;101858.78;5022164;28;20640;-68
2022/10/20 04:43:55;;;;;;;5.23;4.73;;;;;;;6.84;100.00;101768.44;5036434;28;20446;-69
2022/10/20 04:46:20;;;;;;;5.50;4.90;;;;;;;7.34;100.00;101828.44;5036867;28;20219;-69
2022/10/20 04:48:46;;;;;;;5.70;4.60;;;;;;;6.52;100.00;101737.78;5029596;28;21083;-68
2022/10/20 04:51:13;;;;;;;5.80;5.13;;;;;;;7.18;100.00;101845.97;5026275;28;20207;-69
2022/10/20 04:53:39;;;;;;;6.13;5.53;;;;;;;7.22;100.00;101836.66;5027702;28;20612;-68
2022/10/20 04:56:06;;;;;;;5.97;5.00;;;;;;;6.64;100.00;101766.91;5031995;28;20466;-68
2022/10/20 04:58:32;;;;;;;6.37;4.83;;;;;;;7.36;100.00;101826.47;5027206;28;20440;-68
2022/10/20 05:01:09;;;;;;;6.10;4.90;;;;;;;7.11;100.00;101820.03;5042677;28;21016;-68
2022/10/20 05:03:35;;;;;;;6.50;4.40;;;;;;;7.31;100.00;101834.91;5036899;28;20441;-69
2022/10/20 05:06:15;;;;;;;8.33;4.90;;;;;;;7.16;100.00;101828.44;5032478;28;20458;-68
2022/10/20 05:08:43;;;;;;;8.10;5.33;;;;;;;7.12;100.00;101849.25;5021680;28;20435;-69
2022/10/20 05:11:09;;;;;;;12.20;5.60;;;;;;;7.05;100.00;101847.34;5042262;28;20430;-68
2022/10/20 05:13:36;;;;;;;6.87;5.50;;;;;;;7.11;100.00;101846.72;5025363;28;20478;-68
2022/10/20 05:16:02;;;;;;;7.70;4.90;;;;;;;7.07;100.00;101848.03;5042021;28;20510;-69
2022/10/20 05:18:27;;;;;;;9.03;5.50;;;;;;;7.16;100.00;101834.63;5034643;28;20465;-69
2022/10/20 05:20:53;;;;;;;8.17;5.83;;;;;;;7.24;100.00;101831.19;5043003;28;20504;-69
2022/10/20 05:23:19;;;;;;;5.77;4.90;;;;;;;6.82;100.00;101751.75;5023109;28;20198;-68
2022/10/20 05:25:44;;;;;;;5.87;5.27;;;;;;;7.02;100.00;101809.28;5027153;28;20269;-69
2022/10/20 05:28:09;;;;;;;8.37;4.90;;;;;;;6.55;100.00;101739.31;5031349;28;20176;-69
2022/10/20 05:30:35;;;;;;;6.90;5.63;;;;;;;6.49;100.00;101727.44;5040720;28;20192;-68
2022/10/20 05:33:01;;;;;;;6.70;5.30;;;;;;;7.09;100.00;101811.34;5019775;28;20211;-69
2022/10/20 05:35:27;;;;;;;6.80;5.60;;;;;;;7.00;100.00;101803.28;5040697;28;20230;-68
2022/10/20 05:37:53;;;;;;;5.90;5.03;;;;;;;6.44;100.00;101736.88;5039978;28;20915;-69
2022/10/20 05:40:18;;;;;;;6.40;4.93;;;;;;;6.89;100.00;101792.84;5024014;28;20200;-69
2022/10/20 05:42:43;;;;;;;5.47;4.77;;;;;;;6.43;100.00;101690.72;5042550;28;20195;-69
2022/10/20 05:45:09;;;;;;;7.13;4.83;;;;;;;6.89;100.00;101790.16;5034845;28;20253;-69
2022/10/20 05:47:34;;;;;;;7.07;5.23;;;;;;;6.87;100.00;101786.81;5035575;28;20192;-69
2022/10/20 05:50:00;;;;;;;10.37;5.77;;;;;;;6.80;100.00;101767.09;5029622;28;20196;-69
2022/10/20 05:52:25;;;;;;;5.70;5.13;;;;;;;6.75;100.00;101756.88;5026219;28;20840;-69
2022/10/20 05:54:51;;;;;;;7.10;5.77;;;;;;;6.44;100.00;101708.38;5036745;28;20191;-69
2022/10/20 05:57:16;;;;;;;6.30;5.00;;;;;;;6.92;100.00;101791.69;5041266;28;20188;-69
2022/10/20 05:59:42;;;;;;;6.63;4.93;;;;;;;6.86;100.00;101776.31;5041093;28;20188;-69
2022/10/20 06:02:09;;;;;;;4.73;4.33;;;;;;;6.40;100.00;101684.88;5041634;28;20188;-69
2022/10/20 06:04:35;;;;;;;5.80;4.33;;;;;;;6.46;100.00;101694.91;5027881;28;20188;-68
2022/10/20 06:07:00;;;;;;;6.43;5.03;;;;;;;6.76;100.00;101721.19;5024278;28;20468;-69
2022/10/20 06:09:26;;;;;;;7.53;5.17;;;;;;;6.68;100.00;101734.47;5028084;28;20180;-69
2022/10/20 06:11:53;;;;;;;7.33;5.20;;;;;;;6.87;100.00;101776.13;5041756;28;20716;-69
2022/10/20 06:14:21;;;;;;;10.80;5.17;;;;;;;6.75;100.00;101766.69;5041796;28;20266;-68
2022/10/20 06:16:49;;;;;;;5.37;4.77;;;;;;;6.97;100.00;101770.72;5024900;28;20484;-68
2022/10/20 06:19:14;;;;;;;5.57;4.83;;;;;;;7.14;100.00;101747.69;5038466;28;20454;-69
2022/10/20 06:21:40;;;;;;;5.70;5.03;;;;;;;6.82;100.00;101724.25;5040910;28;20426;-69
2022/10/20 06:24:06;;;;;;;7.30;5.73;;;;;;;6.88;100.00;101742.31;5039766;28;20192;-69
2022/10/20 06:26:35;;;;;;;6.07;4.80;;;;;;;6.19;100.00;101619.38;5022309;28;20214;-69
2022/10/20 06:29:01;;;;;;;9.10;4.70;;;;;;;6.10;100.00;101596.28;5025408;28;20438;-68
2022/10/20 06:31:35;;;;;;;8.27;5.43;;;;;;;6.97;100.00;101738.72;5041806;28;20438;-69
2022/10/20 06:34:08;;;;;;;6.60;4.73;;;;;;;6.94;100.00;101733.69;5039388;28;20224;-68
2022/10/20 06:36:36;;;;;;;7.63;4.70;;;;;;;5.02;100.00;101400.16;5054543;22;20511;-74
2022/10/20 06:39:04;;;;;;;5.57;4.63;;;;;;;5.66;100.00;101532.22;5053043;28;20502;-74
2022/10/20 06:41:30;;;;;;;6.30;4.33;;;;;;;5.34;100.00;101448.41;5072583;28;20437;-74
2022/10/20 06:43:59;;;;;;;4.97;4.47;;;;;;;5.49;100.00;101496.59;5051460;28;20442;-74
2022/10/20 06:46:32;;;;;;;5.33;4.50;;;;;;;5.19;100.00;101413.50;5066803;28;20839;-75
2022/10/20 06:49:02;;;;;;;5.63;4.03;;;;;;;6.14;100.00;101519.59;5060704;28;20444;-75
2022/10/20 06:51:28;;;;;;;6.30;5.23;;;;;;;7.14;100.00;101705.84;5066375;28;20443;-74
2022/10/20 06:53:54;;;;;;;5.87;4.77;;;;;;;4.92;100.00;101339.09;5065472;28;20445;-75
2022/10/20 06:56:25;;;;;;;9.30;4.33;;;;;;;6.30;100.00;101530.38;5072630;28;20738;-74
2022/10/20 06:58:53;;;;;;;7.23;4.40;;;;;;;5.28;100.00;101379.00;5067466;28;20452;-75
2022/10/20 07:01:22;;;;;;;5.43;4.50;;;;;;;7.24;100.00;101668.41;5045568;28;20446;-74
2022/10/20 07:03:48;;;;;;;5.17;4.60;;;;;;;5.91;100.00;101466.75;5057045;28;20925;-74
2022/10/20 07:06:35;;;;;;;7.77;5.03;;;;;;;6.51;100.00;101533.56;5069311;28;20941;-74
2022/10/20 07:09:02;;;;;;;7.53;4.73;;;;;;;5.39;100.00;101355.69;5065532;28;20475;-75
2022/10/20 07:11:29;;;;;;;8.90;4.60;;;;;;;5.42;100.00;101383.81;5063317;28;20426;-75
2022/10/20 07:13:57;;;;;;;6.20;4.33;;;;;;;7.56;100.00;101650.91;5071263;28;20433;-75
2022/10/20 07:16:25;;;;;;;6.03;4.13;;;;;;;6.00;100.00;101433.09;5049730;28;20464;-75
2022/10/20 07:18:50;;;;;;;4.53;3.77;;;;;;;5.94;100.00;101391.94;5071545;28;20472;-75
2022/10/20 07:21:19;;;;;;;5.30;4.80;;;;;;;6.09;100.00;101446.31;5066799;28;20924;-73
2022/10/20 07:23:44;;;;;;;7.90;4.47;;;;;;;5.84;100.00;101376.03;5068856;28;20265;-73
2022/10/20 07:26:16;;;;;;;4.10;3.63;;;;;;;5.60;100.00;101320.75;5068368;28;20625;-73
2022/10/20 07:28:43;;;;;;;6.47;4.73;;;;;;;7.56;100.00;101667.78;5068294;28;20527;-72
2022/10/20 07:31:14;;;;;;;4.90;4.20;;;;;;;7.12;100.00;101584.31;5072035;28;20417;-73
2022/10/20 07:33:40;;;;;;;5.10;3.80;;;;;;;7.69;100.00;101664.66;5069851;28;20570;-73
2022/10/20 07:36:17;;;;;;;4.90;3.80;;;;;;;7.79;100.00;101675.22;5067329;28;20957;-73
2022/10/20 07:38:43;;;;;;;6.47;4.10;;;;;;;7.86;100.00;101663.72;5068330;28;20433;-73
2022/10/20 07:41:09;;;;;;;5.27;4.10;;;;;;;7.91;100.00;101682.78;5068129;28;20445;-73
2022/10/20 07:43:36;;;;;;;7.10;4.27;;;;;;;6.88;100.00;101527.13;5068584;28;20183;-73
2022/10/20 07:46:01;;;;;;;4.40;4.00;;;;;;;7.34;100.00;101599.75;5069496;28;20467;-73
2022/10/20 07:48:27;;;;;;;4.90;3.70;;;;;;;7.89;100.00;101658.06;5071142;28;20888;-73
2022/10/20 07:50:52;;;;;;;4.73;4.10;;;;;;;7.96;100.00;101646.75;5070759;28;20182;-73
2022/10/20 07:53:17;;;;;;;5.27;3.93;;;;;;;7.60;100.00;101589.03;5049480;28;20215;-73
2022/10/20 07:55:44;;;;;;;4.07;3.70;;;;;;;8.08;100.00;101670.34;5069791;28;20665;-73
2022/10/20 07:58:10;;;;;;;7.50;3.70;;;;;;;7.85;100.00;101618.50;5071926;28;20184;-73
2022/10/20 08:00:36;;;;;;;6.67;4.17;;;;;;;7.98;100.00;101674.97;5076431;28;20498;-73
2022/10/20 08:03:02;;;;;;;4.10;3.53;;;;;;;7.61;100.00;101566.69;5077667;28;20454;-73
2022/10/20 08:05:28;;;;;;;6.43;3.80;;;;;;;8.12;100.00;101642.28;5077961;28;20193;-73
2022/10/20 08:07:54;;;;;;;7.40;3.33;;;;;;;7.88;100.00;101572.75;5076304;28;20245;-73
2022/10/20 08:10:19;;;;;;;5.20;3.87;;;;;;;7.89;100.00;101577.09;5074140;28;20855;-73
2022/10/20 08:12:44;;;;;;;4.90;3.57;;;;;;;7.87;100.00;101547.06;5071958;28;20675;-73
2022/10/20 08:15:10;;;;;;;6.20;3.67;;;;;;;8.25;100.00;101606.25;5077260;28;21159;-73
2022/10/20 08:17:35;;;;;;;11.83;3.80;;;;;;;8.25;100.00;101611.59;5075981;28;20209;-73
2022/10/20 08:20:01;;;;;;;4.13;3.70;;;;;;;8.19;100.00;101573.00;5077066;28;20213;-74
2022/10/20 08:22:26;;;;;;;3.40;3.10;;;;;;;8.23;100.00;101573.50;5076338;28;20186;-73
2022/10/20 08:24:52;;;;;;;4.40;3.87;;;;;;;8.48;100.00;101582.41;5073602;28;20183;-73
2022/10/20 08:27:18;;;;;;;5.80;3.73;;;;;;;8.23;100.00;101560.13;5072528;28;20210;-73
2022/10/20 08:29:43;;;;;;;5.07;3.60;;;;;;;7.96;100.00;101491.81;5076769;28;20911;-72
2022/10/20 08:32:11;;;;;;;4.77;4.27;;;;;;;8.08;100.00;101496.66;5077226;28;20237;-73
2022/10/20 08:34:36;;;;;;;4.33;3.40;;;;;;;8.13;100.00;101486.31;5075462;28;20266;-73
2022/10/20 08:37:02;;;;;;;4.20;3.30;;;;;;;8.35;100.00;101508.84;5077304;28;20535;-73
2022/10/20 08:39:27;;;;;;;6.03;3.43;;;;;;;8.26;100.00;101484.97;5071687;28;20553;-73
2022/10/20 08:41:53;;;;;;;4.83;3.90;;;;;;;8.66;100.00;101569.69;5054579;28;20220;-73
2022/10/20 08:44:24;;;;;;;4.90;3.57;;;;;;;8.62;100.00;101538.09;5074768;28;20269;-73
2022/10/20 08:46:50;;;;;;;6.90;3.93;;;;;;;8.83;100.00;101568.66;5074844;28;20456;-73
2022/10/20 08:49:23;;;;;;;3.80;3.27;;;;;;;8.79;100.00;101547.78;5077550;28;20488;-73
2022/10/20 08:51:49;;;;;;;6.10;3.77;;;;;;;9.09;100.00;101598.91;5056364;28;20219;-74
2022/10/20 08:54:15;;;;;;;3.33;3.00;;;;;;;8.30;100.00;101481.81;5056982;28;20499;-73
2022/10/20 08:56:41;;;;;;;3.37;3.07;;;;;;;8.81;100.00;101543.09;5070854;28;20198;-73
2022/10/20 08:59:37;;;;;;;8.60;3.97;;;;;;;9.07;100.00;101574.97;5075478;28;20533;-74
2022/10/20 09:02:13;;;;;;;5.77;3.03;;;;;;;8.81;100.00;101505.63;5064303;28;20444;-73
2022/10/20 09:04:47;;;;;;;6.77;4.00;;;;;;;8.63;100.00;101500.50;5074964;28;20808;-73
2022/10/20 09:07:32;;;;;;;8.40;3.60;;;;;;;9.22;100.00;101570.56;5071944;28;20466;-73
2022/10/20 09:10:16;;;;;;;5.53;3.63;;;;;;;9.27;100.00;101549.50;5055412;28;20439;-73
2022/10/20 09:12:44;;;;;;;5.77;4.00;;;;;;;9.47;100.00;101546.41;5071474;28;20471;-73
2022/10/20 09:15:12;;;;;;;5.17;4.03;;;;;;;8.94;100.00;101473.00;5073088;28;20421;-73
2022/10/20 09:17:48;;;;;;;4.67;3.30;;;;;;;8.34;100.00;101367.34;5077244;23;20494;-72
2022/10/20 09:20:22;;;;;;;5.53;3.47;;;;;;;9.62;100.00;101566.09;5066158;28;20408;-72
2022/10/20 09:22:47;;;;;;;7.73;3.53;;;;;;;9.36;100.00;101528.03;5050036;28;20977;-72
2022/10/20 09:25:22;;;;;;;5.17;3.20;;;;;;;9.60;100.00;101557.38;5052025;28;20430;-72
2022/10/20 09:27:50;;;;;;;4.75;3.40;;;;;;;9.54;100.00;101523.25;5045693;28;20180;-73
2022/10/20 09:30:24;;;;;;;4.17;3.37;;;;;;;9.67;100.00;101544.97;5050784;28;20458;-73
2022/10/20 09:32:50;;;;;;;3.50;3.20;;;;;;;9.79;100.00;101540.03;5051651;28;20555;-73
2022/10/20 09:35:29;;;;;;;5.50;3.60;;;;;;;9.88;100.00;101524.75;5051277;28;20907;-73
2022/10/20 09:37:57;;;;;;;5.83;3.77;;;;;;;10.09;100.00;101535.66;5049230;28;20422;-73
2022/10/20 09:40:25;;;;;;;4.73;3.60;;;;;;;10.31;100.00;101549.28;5065247;28;20981;-74
2022/10/20 09:42:57;;;;;;;3.80;3.47;;;;;;;10.29;100.00;101537.88;5052275;28;20525;-72
2022/10/20 09:45:29;;;;;;;3.93;3.53;;;;;;;10.42;100.00;101532.75;5051172;28;20430;-72
2022/10/20 09:48:02;;;;;;;3.97;3.30;;;;;;;10.33;100.00;101478.38;5046097;28;20431;-72
2022/10/20 09:50:37;;;;;;;4.60;3.70;;;;;;;10.38;100.00;101497.41;5052406;28;20425;-73
2022/10/20 09:53:06;;;;;;;5.67;3.80;;;;;;;10.34;100.00;101474.66;5050155;28;20974;-72
2022/10/20 09:55:45;;;;;;;5.93;3.47;;;;;;;10.85;100.00;101492.78;5051649;28;20433;-73
2022/10/20 09:58:26;;;;;;;4.40;3.27;;;;;;;10.76;100.00;101485.81;5049047;28;20481;-73
2022/10/20 10:01:05;;;;;;;4.57;3.50;;;;;;;10.89;100.00;101467.22;5051051;28;20426;-73
2022/10/20 10:03:43;;;;;;;4.80;3.20;;;;;;;11.04;100.00;101467.22;5050845;28;20426;-73
2022/10/20 10:06:26;;;;;;;7.80;3.40;;;;;;;11.00;100.00;101466.75;5048332;28;20457;-73
2022/10/20 10:08:52;;;;;;;4.47;3.50;;;;;;;10.66;100.00;101426.25;5047696;28;20444;-73
2022/10/20 10:11:20;;;;;;;4.10;3.70;;;;;;;11.02;100.00;101466.56;5049918;28;20426;-73
2022/10/20 10:13:50;;;;;;;4.60;3.67;;;;;;;10.98;100.00;101467.97;5048631;28;20473;-73
2022/10/20 10:16:18;;;;;;;4.70;3.77;;;;;;;10.79;100.00;101438.00;5049845;28;20508;-73
2022/10/20 10:18:54;;;;;;;5.73;3.57;;;;;;;10.85;100.00;101433.75;5050144;28;20461;-73
2022/10/20 10:21:20;;;;;;;6.33;3.90;;;;;;;10.88;100.00;101453.97;5066365;28;20437;-74
2022/10/20 10:24:00;;;;;;;5.23;4.27;;;;;;;11.03;100.00;101457.50;5050004;28;20547;-73
2022/10/20 10:26:40;;;;;;;6.87;3.73;;;;;;;10.99;100.00;101454.38;5064624;28;20510;-73
2022/10/20 10:29:16;;;;;;;5.63;3.40;;;;;;;11.13;100.00;101447.28;5045357;28;20802;-73
2022/10/20 10:31:50;;;;;;;5.33;4.30;;;;;;;10.93;100.00;101430.94;5052120;28;20451;-73
2022/10/20 10:34:15;;;;;;;4.77;3.70;;;;;;;11.09;100.00;101436.09;5049147;28;20433;-72
2022/10/20 10:36:41;;;;;;;9.70;4.80;;;;;;;11.06;100.00;101420.38;5049121;28;20429;-73
2022/10/20 10:39:12;;;;;;;5.50;4.00;;;;;;;11.24;100.00;101428.03;5051096;28;20204;-72
2022/10/20 10:41:51;;;;;;;8.03;3.93;;;;;;;11.20;100.00;101424.06;5045071;28;20192;-73
2022/10/20 10:44:32;;;;;;;4.33;3.40;;;;;;;11.41;100.00;101417.06;5045886;28;20524;-73
2022/10/20 10:47:41;;;;;;;5.87;4.50;;;;;;;11.41;100.00;101412.50;5042502;28;20437;-73
2022/10/20 10:50:21;;;;;;;8.60;3.90;;;;;;;11.40;100.00;101400.13;5050214;28;20433;-72
2022/10/20 10:53:32;;;;;;;4.17;3.77;;;;;;;11.42;100.00;101399.91;5054943;28;20489;-73
2022/10/20 10:56:30;;;;;;;4.83;4.00;;;;;;;11.51;100.00;101388.00;5048471;28;20844;-73
2022/10/20 10:59:05;;;;;;;7.50;4.63;;;;;;;11.50;100.00;101378.31;5047708;28;20533;-72
2022/10/20 11:01:45;;;;;;;5.47;4.40;;;;;;;11.43;100.00;101377.41;5048628;28;20426;-72
2022/10/20 11:04:45;;;;;;;6.90;4.63;;;;;;;11.49;100.00;101374.78;5050692;28;20425;-73
2022/10/20 11:07:22;;;;;;;7.53;4.10;;;;;;;11.43;100.00;101355.94;5047429;28;20438;-72
2022/10/20 11:09:53;;;;;;;9.60;4.90;;;;;;;11.41;100.00;101380.28;5050710;28;20581;-72
2022/10/20 11:12:56;;;;;;;5.00;4.43;;;;;;;11.50;100.00;101379.13;5048535;28;20509;-73
2022/10/20 11:15:35;;;;;;;5.23;4.70;;;;;;;11.46;100.00;101372.50;5046274;28;20457;-73
2022/10/20 11:18:12;;;;;;;6.17;4.10;;;;;;;11.55;100.00;101365.13;5048959;28;20824;-73
2022/10/20 11:21:01;;;;;;;6.00;4.83;;;;;;;11.59;100.00;101358.34;5065008;28;20476;-72
2022/10/20 11:23:26;;;;;;;6.83;4.80;;;;;;;11.66;100.00;101355.72;5046720;28;20438;-72
2022/10/20 11:26:01;;;;;;;5.17;4.37;;;;;;;11.48;100.00;101343.56;5052595;28;21009;-73
2022/10/20 11:28:43;;;;;;;6.00;5.50;;;;;;;11.85;100.00;101357.75;5045836;28;20268;-72
2022/10/20 11:31:25;;;;;;;5.00;4.20;;;;;;;11.21;100.00;101247.66;5044583;28;20446;-74
2022/10/20 11:34:02;;;;;;;6.47;4.87;;;;;;;12.01;100.00;101339.72;5048544;28;20954;-73
2022/10/20 11:36:34;;;;;;;8.17;5.10;;;;;;;11.90;100.00;101325.75;5049259;28;20410;-72